createdAt,value
2023-03-13T00:01:28.301Z,10.35
2023-03-13T00:03:30.871Z,11.50
2023-03-13T00:05:36.390Z,15.07
2023-03-13T00:07:38.983Z,10.15
2023-03-13T00:09:42.892Z,12.77
2023-03-13T00:11:47.143Z,13.82
2023-03-13T00:13:49.708Z,12.70
2023-03-13T00:16:00.793Z,11.43
2023-03-13T00:18:03.377Z,17.20
2023-03-13T00:20:07.335Z,11.52
2023-03-13T00:22:09.904Z,12.27
2023-03-13T00:24:13.221Z,10.48
2023-03-13T00:26:19.075Z,16.50
2023-03-13T00:28:21.601Z,17.90
2023-03-13T00:30:24.221Z,10.73
2023-03-13T00:32:26.806Z,10.52
2023-03-13T00:34:29.367Z,16.98
2023-03-13T00:36:34.173Z,11.85
2023-03-13T00:38:37.285Z,15.27
2023-03-13T00:40:39.836Z,9.63
2023-03-13T00:42:43.724Z,12.10
2023-03-13T00:44:46.282Z,9.38
2023-03-13T00:46:48.802Z,13.73
2023-03-13T00:48:51.921Z,9.32
2023-03-13T00:50:54.871Z,11.57
2023-03-13T00:52:57.408Z,12.95
2023-03-13T00:54:59.947Z,11.50
2023-03-13T00:57:02.467Z,7.00
2023-03-13T00:59:06.667Z,10.07
2023-03-13T01:01:10.432Z,9.77
2023-03-13T01:03:13.074Z,11.07
2023-03-13T01:05:15.900Z,11.25
2023-03-13T01:07:18.440Z,7.93
2023-03-13T01:09:20.998Z,11.75
2023-03-13T01:11:25.177Z,8.23
2023-03-13T01:13:28.249Z,6.97
2023-03-13T01:15:32.193Z,10.02
2023-03-13T01:17:34.719Z,9.77
2023-03-13T01:19:37.267Z,14.00
2023-03-13T01:21:40.202Z,14.00
2023-03-13T01:23:43.162Z,9.32
2023-03-13T01:25:45.735Z,9.88
2023-03-13T01:27:48.293Z,8.70
2023-03-13T01:29:50.853Z,11.05
2023-03-13T01:31:54.796Z,8.20
2023-03-13T01:33:59.393Z,10.88
2023-03-13T01:36:03.473Z,11.85
2023-03-13T01:38:06.078Z,5.55
2023-03-13T01:40:09.838Z,6.28
2023-03-13T01:42:12.383Z,9.07
2023-03-13T01:44:23.298Z,9.18
2023-03-13T01:46:27.945Z,10.98
2023-03-13T01:48:38.509Z,12.43
2023-03-13T01:50:41.178Z,4.50
2023-03-13T01:52:43.764Z,11.48
2023-03-13T01:54:49.533Z,6.05
2023-03-13T01:56:56.093Z,9.32
2023-03-13T01:58:59.745Z,4.57
2023-03-13T02:01:02.631Z,10.88
2023-03-13T02:03:10.039Z,6.80
2023-03-13T02:05:16.171Z,5.40
2023-03-13T02:07:22.722Z,7.68
2023-03-13T02:09:29.724Z,6.82
2023-03-13T02:11:41.589Z,9.23
2023-03-13T02:15:48.075Z,8.20
2023-03-13T02:17:51.652Z,7.50
2023-03-13T02:19:54.446Z,8.73
2023-03-13T02:22:07.839Z,6.93
2023-03-13T02:24:18.750Z,4.97
2023-03-13T02:26:22.694Z,6.20
2023-03-13T02:28:28.404Z,7.25
2023-03-13T02:30:33.071Z,6.22
2023-03-13T02:32:36.018Z,5.97
2023-03-13T02:34:42.004Z,7.00
2023-03-13T02:36:46.245Z,6.40
2023-03-13T02:38:54.691Z,11.07
2023-03-13T02:40:58.895Z,3.97
2023-03-13T02:43:09.970Z,2.72
2023-03-13T02:45:15.762Z,3.90
2023-03-13T02:47:21.956Z,8.57
2023-03-13T02:49:26.358Z,4.38
2023-03-13T02:51:36.007Z,5.28
2023-03-13T02:53:38.970Z,5.63
2023-03-13T02:55:43.269Z,3.33
2023-03-13T02:57:45.938Z,6.43
2023-03-13T02:59:49.815Z,5.32
2023-03-13T03:01:52.703Z,6.20
2023-03-13T03:03:55.719Z,8.88
2023-03-13T03:05:58.280Z,9.38
2023-03-13T03:08:00.868Z,3.60
2023-03-13T03:10:03.412Z,1.98
2023-03-13T03:12:06.635Z,1.27
2023-03-13T03:14:10.648Z,8.02
2023-03-13T03:16:18.633Z,3.90
2023-03-13T03:18:21.291Z,2.15
2023-03-13T03:20:23.826Z,8.23
2023-03-13T03:22:26.397Z,2.08
2023-03-13T03:24:29.142Z,3.70
2023-03-13T03:26:31.852Z,2.63
2023-03-13T03:28:34.857Z,1.40
2023-03-13T03:30:37.410Z,3.03
2023-03-13T03:32:44.220Z,2.85
2023-03-13T03:34:46.819Z,3.22
2023-03-13T03:36:49.358Z,4.25
2023-03-13T03:38:52.216Z,2.90
2023-03-13T03:40:54.748Z,3.85
2023-03-13T03:42:57.314Z,2.15
2023-03-13T03:45:00.161Z,4.38
2023-03-13T03:47:02.861Z,2.83
2023-03-13T03:49:06.983Z,7.93
2023-03-13T03:51:09.868Z,3.35
2023-03-13T03:53:12.396Z,2.20
2023-03-13T03:55:14.962Z,3.17
2023-03-13T03:57:17.560Z,2.90
2023-03-13T03:59:20.140Z,5.32
2023-03-13T04:01:22.681Z,6.00
2023-03-13T04:03:26.138Z,3.38
2023-03-13T04:05:30.068Z,4.97
2023-03-13T04:07:33.144Z,3.70
2023-03-13T04:09:35.826Z,6.90
2023-03-13T04:11:38.424Z,4.22
2023-03-13T04:13:40.957Z,2.38
2023-03-13T04:15:43.873Z,4.38
2023-03-13T04:17:46.428Z,4.63
2023-03-13T04:19:48.963Z,2.80
2023-03-13T04:21:52.855Z,3.53
2023-03-13T04:23:55.416Z,1.58
2023-03-13T04:25:58.037Z,2.30
2023-03-13T04:28:00.652Z,2.28
2023-03-13T04:30:03.356Z,3.45
2023-03-13T04:32:06.342Z,3.45
2023-03-13T04:34:08.878Z,3.20
2023-03-13T04:36:11.440Z,5.22
2023-03-13T04:38:15.351Z,2.75
2023-03-13T04:40:18.081Z,4.07
2023-03-13T04:42:20.644Z,3.65
2023-03-13T04:44:23.707Z,2.22
2023-03-13T04:46:26.365Z,3.53
2023-03-13T04:48:28.978Z,2.78
2023-03-13T04:50:31.541Z,3.58
2023-03-13T04:52:34.121Z,3.22
2023-03-13T04:54:38.144Z,3.95
2023-03-13T04:56:44.020Z,3.67
2023-03-13T04:58:47.101Z,4.55
2023-03-13T05:00:49.676Z,4.70
2023-03-13T05:02:53.161Z,2.80
2023-03-13T05:04:55.735Z,4.60
2023-03-13T05:06:58.354Z,2.60
2023-03-13T05:09:01.245Z,4.22
2023-03-13T05:11:07.947Z,6.43
2023-03-13T05:13:10.668Z,2.47
2023-03-13T05:15:13.236Z,6.82
2023-03-13T05:17:15.790Z,4.93
2023-03-13T05:19:18.397Z,2.95
2023-03-13T05:21:20.933Z,3.97
2023-03-13T05:23:23.771Z,3.60
2023-03-13T05:25:26.401Z,4.28
2023-03-13T05:27:30.292Z,2.80
2023-03-13T05:29:32.885Z,4.38
2023-03-13T05:31:35.475Z,6.57
2023-03-13T05:33:38.079Z,3.85
2023-03-13T05:35:40.712Z,2.33
2023-03-13T05:37:43.899Z,5.45
2023-03-13T05:39:46.528Z,4.13
2023-03-13T05:41:49.105Z,3.15
2023-03-13T05:43:52.979Z,2.92
2023-03-13T05:45:55.564Z,3.38
2023-03-13T05:47:58.876Z,3.00
2023-03-13T05:50:01.429Z,1.73
2023-03-13T05:52:04.059Z,4.60
2023-03-13T05:54:06.699Z,5.20
2023-03-13T05:56:09.251Z,4.50
2023-03-13T05:58:11.886Z,2.67
2023-03-13T06:00:17.954Z,2.17
2023-03-13T06:02:20.802Z,1.80
2023-03-13T06:04:23.768Z,3.53
2023-03-13T06:06:26.421Z,3.10
2023-03-13T06:08:29.042Z,7.13
2023-03-13T06:10:31.618Z,3.28
2023-03-13T06:12:34.183Z,3.15
2023-03-13T06:14:37.840Z,2.13
2023-03-13T06:16:41.956Z,3.72
2023-03-13T06:18:44.493Z,3.00
2023-03-13T06:20:47.028Z,1.80
2023-03-13T06:22:49.597Z,1.35
2023-03-13T06:24:52.198Z,4.57
2023-03-13T06:26:54.839Z,2.97
2023-03-13T06:28:57.484Z,1.85
2023-03-13T06:31:02.833Z,3.55
2023-03-13T06:33:06.998Z,1.88
2023-03-13T06:35:11.152Z,1.67
2023-03-13T06:37:13.821Z,1.52
2023-03-13T06:39:16.370Z,2.92
2023-03-13T06:41:19.016Z,2.00
2023-03-13T06:43:22.213Z,3.28
2023-03-13T06:45:24.772Z,1.60
2023-03-13T06:47:27.335Z,2.40
2023-03-13T06:49:31.402Z,1.88
2023-03-13T06:51:34.321Z,4.65
2023-03-13T06:53:36.848Z,3.92
2023-03-13T06:55:39.373Z,1.70
2023-03-13T06:57:42.003Z,1.95
2023-03-13T06:59:44.573Z,4.18
2023-03-13T07:01:47.127Z,2.95
2023-03-13T07:03:50.019Z,5.20
2023-03-13T07:05:58.106Z,2.53
2023-03-13T07:08:01.085Z,2.15
2023-03-13T07:10:04.825Z,8.57
2023-03-13T07:12:08.090Z,3.55
2023-03-13T07:14:16.906Z,4.80
2023-03-13T07:16:20.207Z,2.05
2023-03-13T07:18:23.402Z,1.27
2023-03-13T07:20:26.030Z,2.25
2023-03-13T07:22:29.970Z,1.95
2023-03-13T07:24:32.583Z,2.22
2023-03-13T07:26:35.204Z,2.53
2023-03-13T07:28:38.113Z,4.00
2023-03-13T07:30:40.731Z,1.85
2023-03-13T07:32:43.363Z,1.70
2023-03-13T07:34:45.938Z,3.60
2023-03-13T07:36:48.557Z,2.63
2023-03-13T07:38:53.419Z,3.05
2023-03-13T07:40:57.634Z,2.88
2023-03-13T07:43:00.164Z,2.13
2023-03-13T07:45:02.882Z,3.80
2023-03-13T07:47:05.864Z,1.70
2023-03-13T07:49:08.769Z,1.33
2023-03-13T07:51:13.606Z,1.13
2023-03-13T07:53:21.008Z,1.30
2023-03-13T07:55:24.941Z,2.20
2023-03-13T07:57:27.520Z,2.90
2023-03-13T07:59:30.504Z,1.90
2023-03-13T08:01:33.059Z,1.42
2023-03-13T08:03:35.684Z,1.88
2023-03-13T08:05:38.273Z,1.27
2023-03-13T08:07:40.853Z,2.85
2023-03-13T08:09:43.666Z,1.10
2023-03-13T08:11:48.847Z,4.13
2023-03-13T08:13:51.804Z,2.33
2023-03-13T08:15:54.328Z,4.50
2023-03-13T08:17:57.487Z,1.00
2023-03-13T08:20:00.018Z,2.55
2023-03-13T08:22:03.327Z,4.13
2023-03-13T08:24:08.079Z,5.88
2023-03-13T08:26:13.074Z,2.67
2023-03-13T08:28:16.990Z,1.30
2023-03-13T08:30:20.047Z,2.00
2023-03-13T08:32:23.002Z,1.15
2023-03-13T08:34:25.613Z,5.35
2023-03-13T08:36:30.681Z,3.78
2023-03-13T08:38:33.230Z,2.33
2023-03-13T08:40:35.792Z,2.03
2023-03-13T08:42:40.284Z,4.15
2023-03-13T08:44:44.442Z,3.00
2023-03-13T08:46:49.078Z,1.67
2023-03-13T08:48:52.248Z,6.05
2023-03-13T08:51:02.484Z,3.28
2023-03-13T08:53:05.029Z,2.58
2023-03-13T08:55:08.890Z,5.55
2023-03-13T08:57:11.571Z,2.10
2023-03-13T08:59:15.425Z,2.58
2023-03-13T09:01:19.720Z,1.75
2023-03-13T09:03:22.570Z,1.92
2023-03-13T09:05:25.189Z,1.83
2023-03-13T09:07:27.719Z,1.88
2023-03-13T09:09:30.295Z,11.45
2023-03-13T09:11:33.226Z,4.97
2023-03-13T09:13:38.199Z,1.73
2023-03-13T09:15:40.805Z,3.10
2023-03-13T09:17:44.748Z,2.85
2023-03-13T09:19:59.364Z,4.93
2023-03-13T09:22:02.514Z,5.13
2023-03-13T09:24:05.545Z,6.28
2023-03-13T09:26:08.205Z,3.15
2023-03-13T09:28:10.799Z,1.85
2023-03-13T09:30:14.101Z,3.28
2023-03-13T09:32:16.943Z,2.60
2023-03-13T09:34:23.225Z,3.00
2023-03-13T09:36:26.428Z,3.53
2023-03-13T09:38:28.991Z,1.40
2023-03-13T09:40:32.037Z,1.73
2023-03-13T09:42:45.262Z,1.40
2023-03-13T09:44:51.544Z,5.32
2023-03-13T09:47:02.615Z,1.35
2023-03-13T09:49:11.807Z,5.47
2023-03-13T09:51:20.522Z,2.97
2023-03-13T09:53:34.139Z,6.43
2023-03-13T09:55:39.533Z,3.53
2023-03-13T09:57:50.720Z,4.22
2023-03-13T09:59:58.549Z,5.25
2023-03-13T10:02:05.137Z,2.90
2023-03-13T10:04:15.161Z,2.55
2023-03-13T10:06:20.928Z,3.38
2023-03-13T10:08:25.264Z,3.92
2023-03-13T10:10:36.847Z,2.30
2023-03-13T10:12:44.957Z,6.20
2023-03-13T10:14:54.990Z,3.72
2023-03-13T10:17:03.724Z,3.42
2023-03-13T10:19:13.626Z,2.63
2023-03-13T10:21:20.712Z,2.53
2023-03-13T10:23:28.696Z,2.00
2023-03-13T10:25:34.061Z,3.78
2023-03-13T10:27:45.358Z,4.53
2023-03-13T10:29:47.940Z,3.92
2023-03-13T10:31:57.418Z,4.05
2023-03-13T10:34:07.182Z,9.48
2023-03-13T10:36:12.549Z,6.30
2023-03-13T10:38:19.639Z,6.47
2023-03-13T10:40:24.637Z,5.38
2023-03-13T10:42:29.343Z,3.38
2023-03-13T10:44:34.021Z,7.55
2023-03-13T10:46:41.809Z,9.05
2023-03-13T10:48:44.354Z,2.33
2023-03-13T10:50:48.619Z,3.63
2023-03-13T10:52:52.109Z,5.63
2023-03-13T10:55:00.867Z,2.95
2023-03-13T10:57:22.063Z,4.60
2023-03-13T10:59:26.665Z,4.05
2023-03-13T11:01:32.428Z,7.38
2023-03-13T11:03:35.112Z,5.80
2023-03-13T11:05:43.134Z,7.35
2023-03-13T11:07:46.236Z,4.05
2023-03-13T11:10:00.306Z,6.20
2023-03-13T11:12:06.133Z,5.28
2023-03-13T11:14:10.833Z,2.65
2023-03-13T11:16:20.599Z,1.80
2023-03-13T11:18:31.331Z,2.45
2023-03-13T11:20:37.591Z,3.40
2023-03-13T11:23:06.200Z,2.85
2023-03-13T11:25:21.757Z,4.05
2023-03-13T11:27:31.154Z,3.92
2023-03-13T11:29:44.098Z,3.38
2023-03-13T11:31:49.969Z,2.97
2023-03-13T11:33:59.638Z,4.65
2023-03-13T11:36:07.163Z,3.95
2023-03-13T11:38:19.920Z,4.63
2023-03-13T11:40:31.065Z,3.53
2023-03-13T11:43:21.653Z,5.63
2023-03-13T11:45:49.337Z,2.17
2023-03-13T11:48:00.008Z,7.43
2023-03-13T11:50:16.305Z,4.63
2023-03-13T11:52:31.348Z,3.70
2023-03-13T11:54:51.242Z,3.13
2023-03-13T11:56:58.246Z,6.50
2023-03-13T11:59:17.457Z,6.55
2023-03-13T12:01:21.717Z,2.72
2023-03-13T12:03:34.412Z,5.15
2023-03-13T12:05:45.529Z,4.10
2023-03-13T12:07:54.417Z,4.32
2023-03-13T12:10:00.637Z,3.13
2023-03-13T12:12:16.184Z,3.75
2023-03-13T12:14:23.335Z,3.92
2023-03-13T12:16:40.766Z,3.92
2023-03-13T12:18:46.011Z,2.97
2023-03-13T12:20:55.920Z,2.42
2023-03-13T12:23:17.009Z,4.45
2023-03-13T12:25:24.688Z,6.67
2023-03-13T12:27:32.819Z,2.92
2023-03-13T12:29:45.784Z,3.88
2023-03-13T12:31:54.203Z,2.67
2023-03-13T12:34:04.306Z,3.83
2023-03-13T12:36:14.496Z,4.93
2023-03-13T12:38:23.952Z,3.75
2023-03-13T12:40:32.033Z,5.38
2023-03-13T12:42:50.396Z,2.67
2023-03-13T12:44:53.370Z,4.45
2023-03-13T12:47:08.288Z,5.93
2023-03-13T12:49:47.209Z,4.32
2023-03-13T12:52:08.337Z,4.43
2023-03-13T12:54:33.112Z,4.57
2023-03-13T12:56:48.300Z,6.80
2023-03-13T12:58:55.590Z,4.05
2023-03-13T13:01:03.795Z,5.97
2023-03-13T13:03:17.253Z,5.63
2023-03-13T13:05:22.844Z,2.63
2023-03-13T13:07:27.630Z,5.18
2023-03-13T13:09:32.319Z,4.00
2023-03-13T13:11:48.332Z,4.40
2023-03-13T13:13:52.242Z,12.30
2023-03-13T13:16:02.193Z,4.20
2023-03-13T13:18:24.041Z,6.28
2023-03-13T13:20:42.143Z,2.97
2023-03-13T13:22:52.472Z,6.40
2023-03-13T13:24:56.534Z,1.70
2023-03-13T13:26:59.153Z,4.80
2023-03-13T13:29:41.485Z,7.50
2023-03-13T13:32:00.176Z,3.53
2023-03-13T13:34:02.792Z,3.17
2023-03-13T13:36:28.404Z,3.70
2023-03-13T13:38:36.785Z,2.13
2023-03-13T13:40:42.414Z,5.55
2023-03-13T13:42:49.325Z,3.95
2023-03-13T13:44:58.807Z,3.50
2023-03-13T13:47:03.032Z,2.45
2023-03-13T13:49:15.662Z,2.83
2023-03-13T13:51:28.667Z,5.55
2023-03-13T13:53:34.190Z,3.28
2023-03-13T13:55:44.928Z,4.30
2023-03-13T13:57:49.340Z,7.05
2023-03-13T13:59:54.281Z,4.07
2023-03-13T14:02:18.500Z,9.25
2023-03-13T14:04:28.927Z,6.47
2023-03-13T14:06:36.945Z,2.60
2023-03-13T14:08:41.469Z,4.53
2023-03-13T14:10:46.822Z,2.78
2023-03-13T14:12:53.997Z,3.20
2023-03-13T14:15:24.904Z,2.47
2023-03-13T14:17:28.793Z,5.25
2023-03-13T14:19:38.933Z,1.27
2023-03-13T14:21:41.799Z,7.72
2023-03-13T14:23:46.396Z,5.93
2023-03-13T14:25:50.452Z,2.83
2023-03-13T14:27:54.635Z,5.35
2023-03-13T14:30:03.788Z,3.92
2023-03-13T14:32:07.157Z,3.35
2023-03-13T14:34:14.092Z,3.38
2023-03-13T14:36:16.765Z,4.63
2023-03-13T14:38:21.107Z,4.10
2023-03-13T14:40:28.760Z,6.68
2023-03-13T14:42:39.989Z,3.65
2023-03-13T14:44:46.437Z,1.30
2023-03-13T14:46:49.091Z,4.00
2023-03-13T14:48:55.580Z,5.28
2023-03-13T14:51:14.775Z,5.03
2023-03-13T14:53:19.996Z,6.85
2023-03-13T14:55:35.142Z,4.80
2023-03-13T14:57:37.770Z,1.58
2023-03-13T14:59:40.391Z,2.70
2023-03-13T15:01:43.006Z,3.38
2023-03-13T15:03:46.860Z,3.63
2023-03-13T15:05:51.615Z,3.70
2023-03-13T15:07:56.153Z,3.72
2023-03-13T15:10:00.369Z,3.70
2023-03-13T15:12:02.914Z,5.35
2023-03-13T15:14:25.608Z,8.35
2023-03-13T15:16:29.508Z,3.17
2023-03-13T15:18:35.637Z,3.70
2023-03-13T15:20:38.183Z,7.47
2023-03-13T15:22:42.057Z,2.05
2023-03-13T15:24:59.582Z,3.42
2023-03-13T15:27:16.092Z,2.63
2023-03-13T15:29:20.135Z,2.40
2023-03-13T15:31:28.639Z,4.50
2023-03-13T15:33:31.688Z,2.85
2023-03-13T15:35:35.432Z,2.33
2023-03-13T15:37:38.027Z,4.82
2023-03-13T15:39:40.823Z,1.75
2023-03-13T15:41:44.731Z,8.55
2023-03-13T15:43:47.511Z,4.43
2023-03-13T15:45:52.329Z,3.47
2023-03-13T15:47:54.945Z,3.78
2023-03-13T15:49:57.520Z,2.53
2023-03-13T15:52:00.093Z,4.88
2023-03-13T15:54:03.167Z,2.42
2023-03-13T15:56:14.076Z,4.15
2023-03-13T15:58:18.795Z,3.20
2023-03-13T16:00:23.747Z,2.25
2023-03-13T16:02:26.288Z,4.95
2023-03-13T16:04:28.866Z,1.25
2023-03-13T16:06:32.330Z,2.25
2023-03-13T16:08:36.153Z,3.42
2023-03-13T16:10:39.514Z,3.10
2023-03-13T16:12:42.133Z,2.88
2023-03-13T16:14:46.941Z,2.47
2023-03-13T16:16:52.611Z,4.25
2023-03-13T16:18:59.082Z,5.50
2023-03-13T16:21:01.608Z,5.00
2023-03-13T16:23:04.233Z,2.78
2023-03-13T16:25:08.681Z,4.50
2023-03-13T16:27:14.983Z,4.88
2023-03-13T16:29:17.965Z,2.53
2023-03-13T16:31:23.740Z,2.65
2023-03-13T16:33:26.300Z,8.00
2023-03-13T16:35:29.791Z,3.08
2023-03-13T16:37:32.452Z,2.70
2023-03-13T16:39:34.982Z,4.00
2023-03-13T16:41:39.010Z,4.10
2023-03-13T16:43:41.594Z,4.70
2023-03-13T16:45:44.447Z,1.10
2023-03-13T16:47:49.677Z,1.65
2023-03-13T16:49:52.202Z,6.45
2023-03-13T16:51:54.907Z,2.80
2023-03-13T16:54:00.287Z,3.90
2023-03-13T16:56:02.861Z,3.60
2023-03-13T16:58:06.016Z,3.83
2023-03-13T17:00:14.830Z,5.30
2023-03-13T17:02:18.814Z,2.55
2023-03-13T17:04:22.762Z,2.72
2023-03-13T17:06:28.268Z,1.83
2023-03-13T17:08:30.813Z,5.18
2023-03-13T17:10:34.885Z,3.08
2023-03-13T17:12:37.409Z,2.75
2023-03-13T17:14:39.974Z,3.95
2023-03-13T17:16:44.628Z,3.60
2023-03-13T17:18:49.938Z,2.88
2023-03-13T17:20:54.702Z,2.90
2023-03-13T17:22:57.996Z,3.95
2023-03-13T17:25:00.539Z,3.95
2023-03-13T17:27:03.351Z,5.30
2023-03-13T17:29:07.303Z,9.98
2023-03-13T17:31:11.185Z,5.57
2023-03-13T17:33:16.672Z,3.13
2023-03-13T17:35:20.843Z,5.70
2023-03-13T17:37:26.626Z,8.25
2023-03-13T17:39:29.144Z,8.45
2023-03-13T17:41:33.426Z,4.07
2023-03-13T17:43:35.980Z,5.47
2023-03-13T17:45:38.530Z,3.53
2023-03-13T17:47:42.013Z,4.90
2023-03-13T17:49:45.391Z,5.45
2023-03-13T17:51:49.847Z,4.85
2023-03-13T17:53:55.084Z,7.82
2023-03-13T17:55:57.848Z,5.70
2023-03-13T17:58:00.397Z,5.40
2023-03-13T18:00:03.864Z,4.32
2023-03-13T18:02:06.517Z,4.53
2023-03-13T18:04:09.383Z,3.78
2023-03-13T18:06:19.438Z,4.43
2023-03-13T18:08:22.003Z,4.15
2023-03-13T18:10:27.858Z,5.10
2023-03-13T18:12:31.126Z,4.78
2023-03-13T18:14:36.024Z,3.75
2023-03-13T18:16:43.141Z,2.65
2023-03-13T18:18:46.130Z,4.13
2023-03-13T18:20:48.657Z,5.43
2023-03-13T18:22:51.837Z,3.33
2023-03-13T18:24:54.382Z,4.55
2023-03-13T18:26:58.268Z,7.57
2023-03-13T18:29:01.736Z,3.40
2023-03-13T18:31:04.536Z,6.65
2023-03-13T18:33:07.255Z,3.65
2023-03-13T18:35:10.255Z,8.85
2023-03-13T18:37:21.580Z,4.78
2023-03-13T18:39:24.183Z,3.55
2023-03-13T18:41:26.719Z,2.17
2023-03-13T18:43:30.632Z,2.80
2023-03-13T18:45:33.477Z,3.75
2023-03-13T18:47:36.828Z,2.38
2023-03-13T18:49:39.393Z,5.63
2023-03-13T18:51:41.969Z,2.65
2023-03-13T18:53:44.990Z,2.17
2023-03-13T18:55:47.564Z,4.20
2023-03-13T18:57:50.301Z,2.08
2023-03-13T18:59:54.188Z,6.93
2023-03-13T19:01:56.773Z,3.78
2023-03-13T19:04:00.784Z,3.88
2023-03-13T19:06:03.646Z,5.25
2023-03-13T19:08:06.248Z,3.22
2023-03-13T19:10:20.315Z,5.43
2023-03-13T19:12:25.981Z,5.60
2023-03-13T19:14:28.519Z,7.28
2023-03-13T19:16:37.895Z,4.93
2023-03-13T19:18:40.644Z,1.73
2023-03-13T19:20:43.331Z,9.45
2023-03-13T19:22:45.884Z,8.57
2023-03-13T19:24:48.545Z,4.57
2023-03-13T19:26:53.800Z,3.78
2023-03-13T19:28:56.826Z,2.83
2023-03-13T19:30:59.409Z,2.95
2023-03-13T19:33:03.376Z,4.15
2023-03-13T19:35:06.849Z,9.82
2023-03-13T19:37:10.948Z,2.25
2023-03-13T19:39:15.749Z,7.82
2023-03-13T19:41:18.366Z,6.18
2023-03-13T19:43:20.930Z,3.28
2023-03-13T19:45:23.486Z,5.07
2023-03-13T19:47:26.038Z,7.95
2023-03-13T19:49:30.023Z,4.07
2023-03-13T19:51:32.778Z,4.00
2023-03-13T19:53:35.347Z,4.15
2023-03-13T19:55:37.918Z,6.55
2023-03-13T19:57:40.489Z,7.43
2023-03-13T19:59:43.030Z,4.60
2023-03-13T20:01:46.798Z,5.07
2023-03-13T20:03:49.467Z,5.63
2023-03-13T20:05:53.367Z,4.63
2023-03-13T20:07:55.970Z,7.65
2023-03-13T20:09:58.586Z,7.60
2023-03-13T20:12:01.142Z,7.45
2023-03-13T20:14:04.650Z,6.43
2023-03-13T20:16:08.185Z,5.93
2023-03-13T20:18:11.241Z,6.10
2023-03-13T20:20:14.382Z,2.92
2023-03-13T20:22:18.303Z,4.75
2023-03-13T20:24:20.887Z,6.15
2023-03-13T20:26:23.429Z,4.55
2023-03-13T20:28:26.090Z,8.07
2023-03-13T20:30:28.629Z,3.05
2023-03-13T20:32:31.233Z,3.85
2023-03-13T20:34:34.796Z,3.08
2023-03-13T20:36:37.327Z,5.45
2023-03-13T20:38:42.311Z,2.35
2023-03-13T20:40:52.440Z,3.20
2023-03-13T20:42:55.486Z,1.85
2023-03-13T20:44:58.493Z,1.35
2023-03-13T20:47:01.052Z,7.00
2023-03-13T20:49:03.630Z,0.68
2023-03-13T20:51:07.102Z,1.42
2023-03-13T20:53:10.068Z,1.80
2023-03-13T20:55:14.033Z,3.08
2023-03-13T20:57:19.309Z,2.50
2023-03-13T20:59:21.877Z,1.35
2023-03-13T21:01:26.932Z,3.20
2023-03-13T21:03:31.786Z,2.67
2023-03-13T21:05:34.420Z,0.98
2023-03-13T21:07:36.990Z,1.50
2023-03-13T21:09:39.548Z,1.80
2023-03-13T21:11:43.513Z,4.15
2023-03-13T21:13:46.459Z,2.55
2023-03-13T21:15:49.032Z,2.85
2023-03-13T21:17:52.156Z,2.53
2023-03-13T21:19:55.189Z,3.03
2023-03-13T21:21:57.750Z,1.35
2023-03-13T21:24:00.283Z,3.88
2023-03-13T21:26:02.872Z,3.78
2023-03-13T21:28:06.873Z,3.38
2023-03-13T21:30:11.993Z,2.67
2023-03-13T21:32:15.688Z,3.38
2023-03-13T21:34:18.298Z,3.25
2023-03-13T21:36:22.455Z,7.15
2023-03-13T21:38:25.055Z,2.35
2023-03-13T21:40:28.600Z,5.47
2023-03-13T21:42:31.141Z,3.38
2023-03-13T21:44:35.812Z,5.78
2023-03-13T21:46:38.401Z,2.78
2023-03-13T21:48:42.266Z,2.42
2023-03-13T21:50:45.086Z,2.90
2023-03-13T21:52:47.676Z,1.98
2023-03-13T21:54:50.843Z,2.60
2023-03-13T21:56:53.712Z,2.17
2023-03-13T21:58:56.263Z,3.95
2023-03-13T22:01:00.803Z,2.65
2023-03-13T22:03:03.662Z,2.70
2023-03-13T22:05:06.865Z,4.90
2023-03-13T22:07:09.538Z,1.13
2023-03-13T22:09:12.095Z,2.40
2023-03-13T22:11:15.708Z,2.58
2023-03-13T22:13:18.334Z,1.05
2023-03-13T22:15:20.876Z,4.80
2023-03-13T22:17:24.810Z,1.85
2023-03-13T22:19:27.353Z,1.75
2023-03-13T22:21:29.885Z,2.80
2023-03-13T22:23:32.554Z,1.25
2023-03-13T22:25:35.170Z,2.05
2023-03-13T22:27:37.735Z,1.27
2023-03-13T22:29:40.374Z,1.45
2023-03-13T22:31:42.919Z,1.67
2023-03-13T22:33:46.846Z,1.55
2023-03-13T22:35:52.097Z,5.20
2023-03-13T22:37:54.832Z,2.45
2023-03-13T22:39:57.356Z,1.27
2023-03-13T22:41:59.915Z,1.02
2023-03-13T22:44:02.494Z,1.25
2023-03-13T22:46:06.992Z,2.03
2023-03-13T22:48:09.560Z,1.65
2023-03-13T22:50:14.023Z,2.28
2023-03-13T22:52:16.591Z,4.20
2023-03-13T22:54:19.134Z,1.90
2023-03-13T22:56:21.953Z,2.78
2023-03-13T22:58:24.515Z,2.30
2023-03-13T23:00:27.253Z,3.28
2023-03-13T23:02:30.338Z,1.50
2023-03-13T23:04:32.868Z,2.20
2023-03-13T23:06:36.755Z,2.67
2023-03-13T23:08:39.358Z,2.97
2023-03-13T23:10:43.117Z,1.60
2023-03-13T23:12:46.104Z,2.25
2023-03-13T23:14:48.830Z,2.45
2023-03-13T23:16:51.470Z,1.38
2023-03-13T23:18:54.051Z,1.27
2023-03-13T23:20:56.590Z,4.28
2023-03-13T23:23:00.580Z,1.40
2023-03-13T23:25:03.128Z,3.97
2023-03-13T23:27:06.469Z,2.85
2023-03-13T23:29:09.094Z,2.38
2023-03-13T23:31:13.249Z,5.05
2023-03-13T23:33:18.811Z,1.27
2023-03-13T23:35:21.956Z,0.68
2023-03-13T23:37:24.481Z,6.38
2023-03-13T23:39:28.442Z,3.35
2023-03-13T23:41:31.375Z,0.95
2023-03-13T23:43:34.204Z,2.58
2023-03-13T23:45:37.067Z,2.90
2023-03-13T23:47:39.642Z,0.70
2023-03-13T23:49:42.390Z,0.98
2023-03-13T23:51:44.929Z,1.48
2023-03-13T23:53:47.462Z,0.65
2023-03-13T23:55:59.147Z,1.20
2023-03-13T23:58:01.751Z,2.40
